SBOSBO BLL / EKBI
Speedbird OnlineSpeedbird Online BLL / EKBI

Billund Airport
13:33 7°C

Location Billund, Denmark
Latitude: 55.7402992249
Longitude: 9.15178012848
Web Airport Website | Wikipedia
Altitude 75 Meter / 247 Feet
Distance 758 KM / 471 Miles
from London.
Time Zone UTC +1 hours (Europe/Copenhagen)
Codes IATA: BLL
ICAO: EKBI
Currency £1 equals DKK 8.47
Runways
RunwayLength (m)Surface
093100Asphalt
273100Asphalt
Radio
TypeDescriptionFrequency
APPAPP127.575
ATISATIS118.775
MISCCARGO HANDLING122.075
MISCHANDLING130.85
OPSARPT OFFICE131.5
TWRTWR119
Live ATC
METAR EKBI 311220Z AUTO 26019G29KT 9999 BKN008/// 07/06 Q1003
TAF TAF AMD EKBI 311201Z 3112/0112 28018KT 9999 BKN006 BECMG 3112/3113 BKN020 TEMPO 3113/0102 29026G40KT 4000 SHRA BKN012 SCT020CB TEMPO 0102/0112 27020G30KT 4000 SHRA BKN012 SCT020CB
Weather As Of 31 Jan 2023 13:33
Description Broken clouds
Wind 35 km/h from West (260°)
Cloud Cover 75%
Precipitation Rain: none, Snow: none
Sunrise 08:19
Sunset 16:53
Lounges King Amlet Lounge , Departures Area
Rotations During the last 90 days there were
68 flights from LHR
40 flights from LCY
33 flights from MAN
67 flights to LHR
34 flights to MAN



Support Speedbird Online

© 2017-2023 Speedbird Online